Time;durP1;ratioP1;P1;durP2;ratioP2;P2;SDS_P1;SDS_P2;PMS_P1;PMS_P2;Temp;Humidity;BMP_temperature;BMP_pressure;BME280_temperature;BME280_humidity;BME280_pressure;Samples;Min_cycle;Max_cycle;Signal;HPM_P1;HPM_P2
2022/12/15 00:38:48;;;;;;;29.23;19.23;;;;;;;-7.45;96.04;100498.34;5325456;28;20027;-70
2022/12/15 00:41:19;;;;;;;25.03;15.97;;;;;;;-7.48;96.16;100490.63;5325576;28;20482;-70
2022/12/15 00:43:51;;;;;;;33.00;20.23;;;;;;;-7.51;95.73;100502.28;5325338;28;20031;-70
2022/12/15 01:20:33;;;;;;;32.75;21.30;;;;;;;-7.58;97.27;100522.13;5324930;28;20036;-70
2022/12/15 01:23:04;;;;;;;32.75;20.45;;;;;;;-7.57;97.02;100528.94;5325114;28;20024;-70
2022/12/15 01:25:37;;;;;;;39.60;22.43;;;;;;;-7.56;98.31;100533.22;5324889;28;20054;-70
2022/12/15 01:28:08;;;;;;;;;;;;;;;-7.56;98.06;100526.50;5325271;28;20032;-70
2022/12/15 01:30:39;;;;;;;34.95;21.10;;;;;;;-7.51;98.12;100532.66;5324792;28;19926;-70
2022/12/15 01:33:12;;;;;;;37.37;20.80;;;;;;;-7.48;98.03;100526.91;5324732;28;20031;-70
2022/12/15 01:35:43;;;;;;;33.72;22.65;;;;;;;-7.47;98.66;100528.69;5324708;28;20034;-70
2022/12/15 01:38:15;;;;;;;34.83;21.40;;;;;;;-7.49;98.63;100512.50;5324943;28;20032;-69
2022/12/15 01:40:57;;;;;;;37.53;22.10;;;;;;;-7.49;99.06;100520.09;5325390;28;20031;-69
2022/12/15 01:43:32;;;;;;;38.80;22.80;;;;;;;-7.52;98.80;100514.88;5326269;28;20058;-69
2022/12/15 01:46:14;;;;;;;32.50;22.02;;;;;;;-7.54;98.85;100518.97;5326162;28;20031;-69
2022/12/15 01:49:12;;;;;;;34.65;22.15;;;;;;;-7.57;99.42;100534.84;5325984;28;20031;-69
2022/12/15 01:51:47;;;;;;;35.28;22.38;;;;;;;-7.55;99.03;100542.53;5285546;28;20039;-69
2022/12/15 01:54:21;;;;;;;29.58;20.88;;;;;;;-7.56;99.50;100548.41;5325642;28;20020;-69
2022/12/15 01:56:58;;;;;;;38.08;21.35;;;;;;;-7.66;98.76;100539.44;5325127;28;20478;-69
2022/12/15 01:59:37;;;;;;;32.03;20.67;;;;;;;-7.66;99.44;100544.50;5325730;28;20027;-69
2022/12/15 02:02:11;;;;;;;35.42;22.02;;;;;;;-7.72;98.97;100545.00;5324920;28;20023;-69
2022/12/15 02:04:44;;;;;;;34.03;21.27;;;;;;;-7.75;98.81;100557.47;5326780;28;20027;-69
2022/12/15 02:07:17;;;;;;;35.15;20.17;;;;;;;-7.79;99.59;100553.03;5328687;28;20478;-69
2022/12/15 02:09:51;;;;;;;32.55;21.48;;;;;;;-7.76;99.46;100570.03;5328753;28;20049;-69
2022/12/15 02:12:25;;;;;;;31.02;20.00;;;;;;;-7.77;100.00;100570.84;5329008;28;20027;-69
2022/12/15 02:15:14;;;;;;;31.58;20.52;;;;;;;-7.83;99.55;100581.47;5328278;28;20019;-70
2022/12/15 02:17:56;;;;;;;35.53;21.17;;;;;;;-7.88;99.31;100581.19;5328133;28;20028;-69
2022/12/15 02:20:51;;;;;;;36.63;21.17;;;;;;;-7.87;99.55;100571.97;5328132;28;20028;-70
2022/12/15 02:23:31;;;;;;;31.50;19.98;;;;;;;-7.89;99.62;100571.88;5328391;28;20401;-69
2022/12/15 02:26:32;;;;;;;38.90;21.55;;;;;;;-7.88;99.77;100568.56;5328403;28;20023;-69
2022/12/15 02:29:15;;;;;;;36.03;21.42;;;;;;;-7.88;99.53;100570.22;5327325;28;20394;-70
2022/12/15 02:31:58;;;;;;;32.13;19.88;;;;;;;-7.89;99.46;100578.59;5327763;28;20026;-68
2022/12/15 02:34:29;;;;;;;;;;;;;;;-7.94;99.05;100574.91;5328025;28;20366;-70
2022/12/15 02:37:05;;;;;;;37.20;21.00;;;;;;;-7.91;99.02;100578.50;5327700;28;19908;-69
2022/12/15 02:39:37;;;;;;;38.30;22.67;;;;;;;-7.94;100.00;100575.78;5327963;28;20039;-69
2022/12/15 02:42:09;;;;;;;35.53;20.63;;;;;;;-7.96;99.33;100576.50;5311327;28;20032;-70
2022/12/15 02:44:44;;;;;;;;;;;;;;;-7.99;99.83;100581.38;5306804;28;20028;-70
2022/12/15 02:47:21;;;;;;;32.90;20.27;;;;;;;-7.96;99.87;100582.41;5305962;28;20248;-69
2022/12/15 02:50:14;;;;;;;36.33;22.50;;;;;;;-7.97;99.40;100579.81;5306479;28;20081;-69
2022/12/15 02:52:54;;;;;;;;;;;;;;;-8.04;100.00;100587.84;5306947;28;20471;-69
2022/12/15 02:55:31;;;;;;;37.72;20.58;;;;;;;-7.98;99.59;100589.06;5305946;28;20316;-69
2022/12/15 02:58:11;;;;;;;36.10;21.58;;;;;;;-8.01;99.36;100590.53;5305951;28;20048;-69
2022/12/15 03:00:49;;;;;;;32.00;19.95;;;;;;;-8.02;99.65;100586.25;5306067;28;20040;-70
2022/12/15 03:03:22;;;;;;;34.85;22.30;;;;;;;-8.02;99.96;100582.06;5306049;28;20060;-70
2022/12/15 03:05:54;;;;;;;30.95;20.80;;;;;;;-8.01;100.00;100575.38;5306423;28;20053;-70
2022/12/15 03:08:25;;;;;;;31.07;21.07;;;;;;;-8.04;100.00;100578.56;5306559;28;20036;-70
2022/12/15 03:10:57;;;;;;;36.63;22.73;;;;;;;-8.02;100.00;100581.19;5306076;28;20290;-70
2022/12/15 03:13:29;;;;;;;35.97;22.75;;;;;;;-7.98;100.00;100590.72;5305077;28;20039;-71
2022/12/15 03:16:00;;;;;;;39.47;23.03;;;;;;;-7.95;100.00;100593.41;5307724;28;20033;-70
2022/12/15 03:18:31;;;;;;;38.00;23.10;;;;;;;-7.97;100.00;100592.44;5305295;28;20483;-70
2022/12/15 03:21:03;;;;;;;34.93;21.53;;;;;;;-7.96;100.00;100592.53;5305563;28;20028;-70
2022/12/15 03:23:34;;;;;;;33.73;21.03;;;;;;;-7.95;100.00;100599.34;5305698;28;20032;-69
2022/12/15 03:26:05;;;;;;;38.13;22.47;;;;;;;-7.97;100.00;100589.91;5305474;28;20039;-70
2022/12/15 03:28:37;;;;;;;36.30;22.83;;;;;;;-7.96;100.00;100597.59;5305080;28;20024;-70
2022/12/15 03:31:09;;;;;;;34.30;22.27;;;;;;;-7.91;100.00;100608.00;5305269;28;20120;-70
2022/12/15 03:33:40;;;;;;;33.23;22.30;;;;;;;-7.84;100.00;100602.53;5315367;28;20039;-70
2022/12/15 03:36:11;;;;;;;33.33;23.17;;;;;;;-7.82;100.00;100602.56;5326408;28;20050;-70
2022/12/15 03:38:43;;;;;;;36.10;22.27;;;;;;;-7.83;100.00;100609.31;5325687;28;20032;-70
2022/12/15 03:41:16;;;;;;;37.40;22.33;;;;;;;-7.76;100.00;100602.94;5326253;28;20054;-71
2022/12/15 03:43:48;;;;;;;38.10;23.38;;;;;;;-7.79;100.00;100608.72;5326586;28;20027;-70
2022/12/15 03:46:19;;;;;;;36.37;22.73;;;;;;;-7.81;100.00;100606.88;5326325;28;20036;-70
2022/12/15 03:48:50;;;;;;;36.27;23.33;;;;;;;-7.81;100.00;100615.31;5326346;28;20042;-71
2022/12/15 03:51:22;;;;;;;35.30;22.10;;;;;;;-7.81;100.00;100611.94;5326712;28;20096;-71
2022/12/15 03:53:53;;;;;;;39.70;22.93;;;;;;;-7.82;100.00;100606.00;5308190;28;20031;-70
2022/12/15 03:56:25;;;;;;;36.67;24.47;;;;;;;-7.83;100.00;100616.91;5326147;28;20375;-70
2022/12/15 03:58:56;;;;;;;34.27;22.47;;;;;;;-7.84;100.00;100614.28;5326435;28;20044;-70
2022/12/15 04:01:31;;;;;;;34.93;21.87;;;;;;;-7.85;100.00;100610.88;5325954;28;20040;-70
2022/12/15 04:04:03;;;;;;;37.75;23.15;;;;;;;-7.86;100.00;100613.31;5326049;28;20106;-70
2022/12/15 04:06:35;;;;;;;35.85;22.67;;;;;;;-7.90;100.00;100609.75;5325780;28;20089;-70
2022/12/15 04:09:06;;;;;;;39.23;24.17;;;;;;;-7.94;100.00;100611.19;5307760;28;20040;-70
2022/12/15 04:11:37;;;;;;;41.97;22.73;;;;;;;-8.00;100.00;100605.81;5307642;28;20437;-70
2022/12/15 04:14:09;;;;;;;34.87;23.20;;;;;;;-8.02;100.00;100593.84;5325990;28;20477;-70
2022/12/15 04:16:40;;;;;;;33.53;22.13;;;;;;;-8.02;100.00;100598.91;5325615;28;20114;-70
2022/12/15 04:22:02;;;;;;;35.65;21.98;;;;;;;-8.09;100.00;100596.00;5325807;28;20043;-70
2022/12/15 05:32:34;;;;;;;42.85;26.65;;;;;;;-8.28;100.00;100638.69;5324523;28;20032;-70
2022/12/15 05:35:05;;;;;;;43.50;26.30;;;;;;;-8.28;100.00;100638.69;5325233;28;20020;-69
2022/12/15 05:37:37;;;;;;;40.33;27.83;;;;;;;-8.30;100.00;100635.19;5325012;28;20471;-69
2022/12/15 05:40:09;;;;;;;44.33;26.60;;;;;;;-8.28;100.00;100651.34;5327296;28;20485;-70
2022/12/15 05:42:40;;;;;;;48.10;28.30;;;;;;;-8.24;100.00;100655.81;5329140;28;20210;-70
2022/12/15 05:45:12;;;;;;;44.80;28.50;;;;;;;-8.23;100.00;100652.47;5329159;28;20081;-70
2022/12/15 05:47:48;;;;;;;46.90;29.17;;;;;;;-8.18;100.00;100653.63;5310567;28;20031;-69
2022/12/15 05:50:21;;;;;;;46.75;31.50;;;;;;;-8.11;100.00;100649.84;5329035;28;20466;-69
2022/12/15 05:52:53;;;;;;;;;;;;;;;-8.15;100.00;100653.81;5329265;28;20084;-70
2022/12/15 05:55:24;;;;;;;48.45;28.50;;;;;;;-8.08;100.00;100657.59;5328421;28;19912;-70
2022/12/15 05:57:55;;;;;;;46.93;30.23;;;;;;;-8.06;100.00;100656.03;5328309;28;20443;-70
2022/12/15 06:00:27;;;;;;;59.77;29.33;;;;;;;-8.04;100.00;100661.19;5328426;28;20066;-70
2022/12/15 06:02:58;;;;;;;47.63;28.60;;;;;;;-8.06;100.00;100672.06;5328238;28;20039;-69
2022/12/15 06:05:30;;;;;;;45.40;30.10;;;;;;;-8.03;100.00;100671.41;5328649;28;20038;-69
2022/12/15 06:08:01;;;;;;;49.27;29.63;;;;;;;-8.02;100.00;100675.66;5328435;28;20034;-70
2022/12/15 06:10:32;;;;;;;48.97;29.60;;;;;;;-8.04;100.00;100667.09;5328437;28;20062;-70
2022/12/15 06:13:04;;;;;;;46.73;30.30;;;;;;;-8.04;100.00;100663.72;5328512;28;20028;-70
2022/12/15 06:15:35;;;;;;;44.63;27.90;;;;;;;-8.03;100.00;100660.38;5328490;28;20059;-69
2022/12/15 06:18:06;;;;;;;48.17;30.30;;;;;;;-7.99;100.00;100659.78;5328548;28;20027;-69
2022/12/15 06:20:38;;;;;;;48.27;29.83;;;;;;;-8.03;100.00;100660.38;5328301;28;20032;-69
2022/12/15 06:23:10;;;;;;;46.67;27.90;;;;;;;-8.04;100.00;100668.78;5328235;28;20084;-70
2022/12/15 06:25:42;;;;;;;44.55;27.52;;;;;;;-8.08;100.00;100657.59;5328178;28;20031;-70
2022/12/15 06:28:13;;;;;;;50.10;30.10;;;;;;;-8.09;100.00;100660.91;5328173;28;20117;-70
2022/12/15 06:30:44;;;;;;;54.40;32.37;;;;;;;-8.05;100.00;100657.75;5328164;28;20067;-70
2022/12/15 06:33:16;;;;;;;45.30;27.97;;;;;;;-8.11;100.00;100660.81;5327465;28;20032;-70
2022/12/15 06:35:48;;;;;;;44.77;28.23;;;;;;;-8.13;100.00;100675.03;5328069;28;20027;-70
2022/12/15 06:38:19;;;;;;;37.88;23.58;;;;;;;-8.12;100.00;100674.22;5328289;28;20028;-70
2022/12/15 06:40:59;;;;;;;47.97;27.13;;;;;;;-8.23;100.00;100670.19;5309358;28;20050;-70
2022/12/15 06:43:32;;;;;;;42.22;28.20;;;;;;;-8.26;100.00;100680.09;5327909;28;20462;-69
2022/12/15 06:46:04;;;;;;;44.35;26.70;;;;;;;-8.31;100.00;100686.53;5327752;28;20479;-70
2022/12/15 06:48:35;;;;;;;51.92;31.52;;;;;;;-8.23;100.00;100687.00;5327722;28;20044;-70
2022/12/15 06:51:07;;;;;;;49.40;30.50;;;;;;;-8.17;100.00;100685.72;5326689;28;20038;-70
2022/12/15 06:53:40;;;;;;;44.60;29.67;;;;;;;-8.08;100.00;100681.22;5327653;28;20028;-70
2022/12/15 06:56:22;;;;;;;;;;;;;;;-8.10;100.00;100682.81;5327985;28;20544;-70
2022/12/15 06:58:54;;;;;;;48.40;27.98;;;;;;;-8.09;100.00;100676.09;5327595;28;19991;-70
2022/12/15 07:01:26;;;;;;;45.13;28.83;;;;;;;-8.03;100.00;100684.03;5327338;28;20084;-70
2022/12/15 07:04:00;;;;;;;43.35;28.35;;;;;;;-8.01;100.00;100679.09;5308784;28;20027;-70
2022/12/15 07:06:35;;;;;;;48.38;30.27;;;;;;;-7.98;100.00;100682.66;5327396;28;20135;-70
2022/12/15 07:09:11;;;;;;;48.95;29.33;;;;;;;-7.91;100.00;100686.44;5327197;28;20027;-70
2022/12/15 07:11:44;;;;;;;49.55;30.20;;;;;;;-7.89;100.00;100684.84;5327301;28;20024;-70
2022/12/15 07:14:15;;;;;;;51.42;31.13;;;;;;;-7.82;100.00;100691.16;5326998;28;20027;-70
2022/12/15 07:16:46;;;;;;;50.17;30.43;;;;;;;-7.83;100.00;100695.34;5327354;28;20164;-69
2022/12/15 07:19:18;;;;;;;48.40;30.63;;;;;;;-7.80;100.00;100700.59;5308939;28;20036;-70
2022/12/15 07:21:49;;;;;;;49.70;30.37;;;;;;;-7.80;100.00;100695.53;5326952;28;20122;-70
2022/12/15 07:24:21;;;;;;;41.83;24.90;;;;;;;-7.77;100.00;100694.84;5327098;28;20046;-69
2022/12/15 07:26:53;;;;;;;47.47;28.60;;;;;;;-7.76;100.00;100702.53;5308498;28;20027;-70
2022/12/15 07:29:24;;;;;;;46.35;29.48;;;;;;;-7.78;100.00;100698.16;5326872;28;20084;-70
2022/12/15 07:31:56;;;;;;;48.97;29.80;;;;;;;-7.79;100.00;100696.38;5308472;28;20031;-69
2022/12/15 07:34:27;;;;;;;46.40;28.67;;;;;;;-7.80;100.00;100699.72;5326597;28;20035;-70
2022/12/15 07:36:59;;;;;;;49.63;30.13;;;;;;;-7.85;100.00;100696.91;5291736;28;20475;-70
2022/12/15 07:39:30;;;;;;;38.90;25.10;;;;;;;-7.84;100.00;100697.78;5326736;28;20104;-70
2022/12/15 07:42:02;;;;;;;46.90;29.83;;;;;;;-7.79;100.00;100706.50;5326520;28;20035;-70
2022/12/15 07:44:33;;;;;;;51.67;32.78;;;;;;;-7.80;100.00;100708.19;5326384;28;20070;-70
2022/12/15 07:47:05;;;;;;;54.13;31.47;;;;;;;-7.78;100.00;100708.28;5326835;28;20028;-69
2022/12/15 07:49:36;;;;;;;49.37;30.20;;;;;;;-7.81;100.00;100703.03;5326519;28;20031;-70
2022/12/15 07:52:08;;;;;;;44.40;29.80;;;;;;;-7.83;100.00;100707.13;5326354;28;20122;-69
2022/12/15 07:54:39;;;;;;;54.10;31.57;;;;;;;-7.81;100.00;100705.56;5326380;28;20139;-69
2022/12/15 07:57:11;;;;;;;52.10;31.67;;;;;;;-7.76;100.00;100707.59;5325994;28;20054;-69
2022/12/15 07:59:42;;;;;;;48.30;30.93;;;;;;;-7.71;100.00;100707.84;5326341;28;20040;-68
2022/12/15 08:02:14;;;;;;;49.33;30.33;;;;;;;-7.69;100.00;100718.94;5326003;28;20039;-69
2022/12/15 08:04:45;;;;;;;51.97;32.07;;;;;;;-7.64;100.00;100725.16;5325322;28;20035;-69
2022/12/15 08:07:17;;;;;;;52.73;32.50;;;;;;;-7.53;100.00;100725.78;5325791;28;20024;-69
2022/12/15 08:09:48;;;;;;;51.70;34.30;;;;;;;-7.45;100.00;100732.19;5326051;28;20035;-69
2022/12/15 08:12:19;;;;;;;56.20;34.83;;;;;;;-7.42;100.00;100729.84;5325547;28;20031;-69
2022/12/15 08:14:51;;;;;;;49.97;32.87;;;;;;;-7.44;100.00;100730.50;5325817;28;20023;-69
2022/12/15 08:17:22;;;;;;;47.27;31.47;;;;;;;-7.39;100.00;100726.59;5326062;28;20028;-69
2022/12/15 08:19:53;;;;;;;52.80;34.10;;;;;;;-7.34;100.00;100723.56;5325892;28;20043;-68
2022/12/15 08:22:25;;;;;;;62.77;34.77;;;;;;;-7.28;100.00;100729.75;5308397;28;20034;-68
2022/12/15 08:24:56;;;;;;;57.00;31.83;;;;;;;-7.30;100.00;100724.59;5326523;28;20039;-69
2022/12/15 08:27:27;;;;;;;49.87;33.60;;;;;;;-7.24;100.00;100734.22;5326035;28;20020;-68
2022/12/15 08:29:59;;;;;;;55.00;35.00;;;;;;;-7.21;100.00;100731.84;5326195;28;20118;-68
2022/12/15 08:32:30;;;;;;;53.83;33.57;;;;;;;-7.17;100.00;100739.72;5326334;28;20038;-69
2022/12/15 08:35:02;;;;;;;55.90;33.97;;;;;;;-7.10;100.00;100735.88;5326261;28;20027;-68
2022/12/15 08:37:33;;;;;;;56.40;34.77;;;;;;;-7.04;100.00;100726.09;5290961;28;20093;-68
2022/12/15 08:40:05;;;;;;;53.40;34.17;;;;;;;-6.98;100.00;100728.13;5326243;28;20035;-68
2022/12/15 08:42:37;;;;;;;61.15;34.83;;;;;;;-6.93;100.00;100734.31;5326045;28;20036;-69
2022/12/15 08:45:13;;;;;;;58.27;33.37;;;;;;;-6.80;100.00;100733.34;5326205;28;20046;-69
2022/12/15 08:47:44;;;;;;;52.88;34.95;;;;;;;-6.58;100.00;100732.88;5325591;28;20032;-69
2022/12/15 08:50:16;;;;;;;54.33;34.70;;;;;;;-6.31;100.00;100741.13;5325770;28;20106;-69
2022/12/15 08:52:47;;;;;;;49.10;33.13;;;;;;;-6.09;100.00;100737.19;5325830;28;20032;-69
2022/12/15 08:55:19;;;;;;;54.87;31.97;;;;;;;-5.84;100.00;100741.00;5325605;28;20110;-68
2022/12/15 08:57:53;;;;;;;56.30;32.47;;;;;;;-5.59;100.00;100755.84;5325240;28;20077;-69
2022/12/15 09:00:24;;;;;;;49.20;31.40;;;;;;;-5.30;100.00;100754.81;5307026;28;20045;-69
2022/12/15 09:02:58;;;;;;;48.77;31.13;;;;;;;-5.15;100.00;100757.25;5324656;28;20426;-68
2022/12/15 09:05:29;;;;;;;49.83;31.38;;;;;;;-4.92;100.00;100760.06;5325282;28;20028;-68
2022/12/15 09:08:01;;;;;;;46.47;30.30;;;;;;;-4.72;100.00;100761.03;5325033;28;20038;-68
2022/12/15 09:10:32;;;;;;;46.03;27.03;;;;;;;-4.48;100.00;100777.47;5307133;28;20027;-68
2022/12/15 09:13:03;;;;;;;42.03;27.73;;;;;;;-4.36;100.00;100778.84;5307013;28;20038;-69
2022/12/15 09:15:35;;;;;;;45.47;28.00;;;;;;;-4.24;100.00;100779.44;5324946;28;20036;-69
2022/12/15 09:18:06;;;;;;;39.40;27.40;;;;;;;-4.10;100.00;100775.88;5306854;28;20027;-70
2022/12/15 09:20:37;;;;;;;43.97;29.87;;;;;;;-3.91;100.00;100780.13;5325269;28;20024;-69
2022/12/15 09:23:09;;;;;;;43.00;28.13;;;;;;;-3.72;98.41;100779.28;5325057;28;20110;-69
2022/12/15 09:25:40;;;;;;;46.77;27.50;;;;;;;-3.55;98.86;100784.25;5325279;28;20023;-70
2022/12/15 09:28:13;;;;;;;53.13;33.33;;;;;;;-3.47;95.17;100790.56;5324765;28;20027;-70
2022/12/15 09:30:44;;;;;;;36.40;24.65;;;;;;;-3.28;94.05;100806.66;5325158;28;20020;-70
2022/12/15 09:33:16;;;;;;;47.97;33.17;;;;;;;-3.05;93.39;100805.97;5324896;28;20163;-70
2022/12/15 09:35:51;;;;;;;36.93;25.60;;;;;;;-3.08;90.65;100808.38;5325101;28;20451;-70
2022/12/15 09:38:22;;;;;;;38.92;26.98;;;;;;;-3.14;91.42;100805.56;5324813;28;20119;-70
2022/12/15 09:40:54;;;;;;;41.00;25.53;;;;;;;-2.96;92.11;100805.50;5325297;28;20110;-70
2022/12/15 09:43:27;;;;;;;52.07;29.43;;;;;;;-2.75;91.85;100811.50;5324757;28;20580;-70
2022/12/15 09:46:21;;;;;;;40.05;28.77;;;;;;;-2.51;90.26;100809.88;5324841;28;20496;-70
2022/12/15 09:48:57;;;;;;;33.95;24.15;;;;;;;-2.40;88.42;100823.94;5292081;28;20040;-70
2022/12/15 09:51:35;;;;;;;36.00;25.20;;;;;;;-2.50;87.14;100820.16;5324935;28;20329;-71
2022/12/15 09:54:10;;;;;;;35.92;23.02;;;;;;;-2.35;86.62;100829.22;5325377;28;20106;-70
2022/12/15 09:56:45;;;;;;;38.00;26.85;;;;;;;-2.15;83.32;100827.50;5325198;28;20039;-69
2022/12/15 09:59:49;;;;;;;42.17;26.75;;;;;;;-1.70;83.81;100819.84;5325671;28;20043;-70
2022/12/15 10:02:20;;;;;;;33.78;22.90;;;;;;;-1.40;82.16;100819.22;5308938;28;20058;-70
2022/12/15 10:05:15;;;;;;;34.40;23.37;;;;;;;-1.22;79.75;100819.91;5324729;28;20110;-70
2022/12/15 10:07:48;;;;;;;43.17;29.17;;;;;;;-0.78;80.11;100822.25;5325377;28;20032;-70
2022/12/15 10:10:26;;;;;;;58.50;38.90;;;;;;;-0.47;78.65;100821.56;5324579;28;20024;-70
2022/12/15 10:13:06;;;;;;;30.35;22.35;;;;;;;-0.11;78.43;100820.13;5324382;28;20058;-70
2022/12/15 10:15:45;;;;;;;65.50;40.45;;;;;;;0.44;77.21;100823.50;5324897;28;20023;-70
2022/12/15 10:18:23;;;;;;;34.72;22.33;;;;;;;0.34;74.01;100819.81;5324550;28;20051;-70
2022/12/15 10:20:59;;;;;;;52.03;32.63;;;;;;;0.39;75.05;100822.47;5324794;28;20023;-71
2022/12/15 10:23:37;;;;;;;31.73;22.13;;;;;;;0.29;74.31;100814.53;5324616;28;20034;-70
2022/12/15 10:26:19;;;;;;;30.10;21.67;;;;;;;0.19;73.93;100815.09;5324944;28;20028;-71
2022/12/15 10:29:09;;;;;;;33.70;22.73;;;;;;;0.83;74.72;100813.50;5328592;28;20164;-71
2022/12/15 10:31:51;;;;;;;84.78;59.28;;;;;;;1.43;73.87;100822.78;5328482;28;20443;-70
2022/12/15 10:34:27;;;;;;;33.83;23.77;;;;;;;1.23;69.50;100822.25;5309810;28;20031;-71
2022/12/15 10:36:59;;;;;;;32.83;23.58;;;;;;;1.44;68.77;100823.63;5328646;28;20492;-70
2022/12/15 10:39:39;;;;;;;29.52;22.77;;;;;;;1.55;69.63;100834.19;5328989;28;20080;-71
2022/12/15 10:42:11;;;;;;;32.15;22.10;;;;;;;1.57;67.79;100829.94;5328174;28;20028;-70
2022/12/15 10:44:45;;;;;;;30.88;21.92;;;;;;;2.03;67.79;100825.91;5328363;28;20027;-70
2022/12/15 10:47:17;;;;;;;31.23;23.95;;;;;;;1.39;66.51;100827.78;5309954;28;20031;-71
2022/12/15 10:49:49;;;;;;;34.10;24.60;;;;;;;1.95;67.22;100823.16;5309979;28;20023;-71
2022/12/15 10:52:36;;;;;;;37.97;24.83;;;;;;;2.49;66.91;100826.03;5327963;28;20039;-71
2022/12/15 10:55:36;;;;;;;28.42;20.40;;;;;;;2.98;63.98;100824.44;5327782;28;20491;-71
2022/12/15 10:58:19;;;;;;;27.77;20.73;;;;;;;3.33;61.68;100828.47;5328068;28;20044;-71
2022/12/15 11:01:14;;;;;;;28.90;21.67;;;;;;;3.41;60.99;100821.75;5327811;28;20031;-71
2022/12/15 11:03:50;;;;;;;32.78;22.50;;;;;;;3.23;60.78;100818.00;5327414;28;20051;-70
2022/12/15 11:06:28;;;;;;;30.52;23.02;;;;;;;4.25;59.41;100817.03;5327428;28;20039;-71
2022/12/15 11:09:26;;;;;;;46.30;29.77;;;;;;;4.42;60.38;100821.53;5327373;28;20114;-71
2022/12/15 11:14:50;;;;;;;31.98;23.23;;;;;;;5.20;55.00;100824.13;5327700;28;20040;-70
2022/12/15 11:17:22;;;;;;;28.90;21.23;;;;;;;5.47;54.18;100823.53;5327388;28;20373;-71
2022/12/15 11:19:59;;;;;;;26.63;20.25;;;;;;;5.51;53.84;100811.50;5327631;28;20356;-70
2022/12/15 11:22:33;;;;;;;33.63;21.45;;;;;;;5.26;52.90;100814.75;5327196;28;20541;-70
2022/12/15 11:25:12;;;;;;;30.88;23.50;;;;;;;5.94;53.50;100804.06;5327474;28;20073;-70
2022/12/15 11:27:47;;;;;;;31.92;21.02;;;;;;;5.61;52.15;100805.56;5327387;28;20455;-70
2022/12/15 11:30:22;;;;;;;39.00;26.90;;;;;;;5.42;51.87;100814.88;5327345;28;20035;-70
2022/12/15 11:32:58;;;;;;;34.70;24.50;;;;;;;5.60;52.65;100809.88;5326775;28;20471;-70
2022/12/15 11:35:40;;;;;;;30.20;21.00;;;;;;;6.11;50.73;100801.63;5327272;28;20107;-70
2022/12/15 11:38:42;;;;;;;28.92;19.88;;;;;;;6.55;51.04;100811.31;5326957;28;20110;-70
2022/12/15 11:41:39;;;;;;;28.73;20.15;;;;;;;7.20;48.40;100811.53;5328955;28;20038;-69
2022/12/15 11:44:28;;;;;;;25.95;21.33;;;;;;;7.14;48.02;100811.50;5329245;28;20027;-69
2022/12/15 11:47:34;;;;;;;28.25;18.98;;;;;;;7.53;46.52;100817.59;5328895;28;20482;-71
2022/12/15 11:50:31;;;;;;;29.40;20.10;;;;;;;7.32;45.98;100808.06;5328433;28;20485;-70
2022/12/15 11:53:08;;;;;;;28.65;19.67;;;;;;;7.98;45.66;100808.88;5323768;28;20039;-69
2022/12/15 11:55:58;;;;;;;25.17;19.63;;;;;;;7.90;46.36;100802.00;5328567;28;20437;-70
2022/12/15 11:58:41;;;;;;;25.33;19.83;;;;;;;7.70;45.70;100797.69;5328526;28;20066;-71
2022/12/15 12:01:37;;;;;;;28.17;22.83;;;;;;;8.29;46.17;100802.75;5327826;28;20382;-71
2022/12/15 12:04:08;;;;;;;26.45;20.17;;;;;;;8.22;44.40;100801.91;5327464;28;20123;-71
2022/12/15 12:06:53;;;;;;;29.43;22.00;;;;;;;8.58;43.95;100792.28;5309580;28;20032;-71
2022/12/15 12:09:32;;;;;;;27.67;20.33;;;;;;;8.16;43.88;100786.34;5327605;28;20062;-70
2022/12/15 12:12:31;;;;;;;24.55;19.50;;;;;;;9.03;44.09;100787.75;5327410;28;20093;-70
2022/12/15 12:15:12;;;;;;;26.00;20.52;;;;;;;9.75;42.47;100782.84;5326676;28;20024;-72
2022/12/15 12:17:54;;;;;;;26.88;20.52;;;;;;;9.90;41.99;100772.28;5326516;28;20066;-70
2022/12/15 12:20:46;;;;;;;27.25;20.80;;;;;;;10.67;40.08;100773.13;5326610;28;20102;-71
2022/12/15 12:23:23;;;;;;;27.10;19.57;;;;;;;10.42;38.86;100777.78;5326760;28;20454;-71
2022/12/15 12:26:14;;;;;;;25.23;20.40;;;;;;;11.36;38.93;100776.47;5326778;28;20028;-71
2022/12/15 12:28:49;;;;;;;25.45;19.27;;;;;;;11.85;37.42;100773.03;5326620;28;20455;-70
2022/12/15 12:31:47;;;;;;;27.48;19.58;;;;;;;11.24;38.04;100760.13;5326400;28;20062;-71
2022/12/15 12:34:44;;;;;;;25.02;19.30;;;;;;;11.12;38.22;100773.34;5325662;28;20046;-71
2022/12/15 12:37:39;;;;;;;25.75;22.20;;;;;;;9.78;41.62;100770.63;5325572;28;20039;-71
2022/12/15 12:40:20;;;;;;;30.20;21.52;;;;;;;8.23;43.24;100775.09;5314616;28;20047;-71
2022/12/15 12:42:59;;;;;;;26.63;21.80;;;;;;;7.20;44.80;100777.81;5308131;28;20062;-71
2022/12/15 12:45:46;;;;;;;31.85;21.63;;;;;;;6.56;46.71;100781.97;5326087;28;20398;-71
2022/12/15 12:48:28;;;;;;;30.30;21.75;;;;;;;5.30;49.36;100780.31;5325885;28;20035;-71
2022/12/15 12:51:11;;;;;;;27.33;23.23;;;;;;;4.28;52.63;100780.94;5325852;28;20110;-70
2022/12/15 12:53:43;;;;;;;28.15;21.10;;;;;;;5.03;52.86;100764.56;5325618;28;20106;-71
2022/12/15 12:56:39;;;;;;;28.53;21.70;;;;;;;6.96;49.08;100763.94;5307268;28;20177;-71
2022/12/15 12:59:28;;;;;;;26.42;20.10;;;;;;;9.16;44.95;100752.13;5325482;28;20092;-71
2022/12/15 13:02:20;;;;;;;27.27;21.80;;;;;;;9.75;43.04;100755.06;5325810;28;20049;-71
2022/12/15 13:04:59;;;;;;;26.73;20.95;;;;;;;9.15;42.22;100737.38;5310778;28;20496;-71
2022/12/15 13:07:33;;;;;;;26.13;21.10;;;;;;;7.62;43.24;100742.34;5325637;28;20040;-71
2022/12/15 13:10:08;;;;;;;27.55;21.25;;;;;;;5.89;48.18;100741.94;5325420;28;20106;-70
2022/12/15 13:12:48;;;;;;;30.80;22.05;;;;;;;5.90;50.18;100742.81;5325515;28;20145;-71
2022/12/15 13:15:26;;;;;;;25.75;20.80;;;;;;;5.37;51.39;100732.09;5325603;28;20070;-71
2022/12/15 13:18:05;;;;;;;28.38;22.17;;;;;;;4.80;52.23;100741.06;5307496;28;20055;-70
2022/12/15 13:20:37;;;;;;;30.77;20.52;;;;;;;4.64;53.56;100730.59;5325156;28;20102;-70
2022/12/15 13:23:20;;;;;;;30.75;22.13;;;;;;;4.13;55.45;100727.41;5325630;28;20503;-70
2022/12/15 13:26:00;;;;;;;33.70;23.40;;;;;;;3.99;56.42;100721.22;5325364;28;20474;-70
2022/12/15 13:28:34;;;;;;;32.13;22.17;;;;;;;4.11;57.05;100721.38;5325110;28;20126;-70
2022/12/15 13:31:15;;;;;;;29.75;23.77;;;;;;;3.50;58.58;100718.81;5325204;28;20035;-70
2022/12/15 13:33:49;;;;;;;34.13;23.90;;;;;;;3.18;59.63;100710.59;5324888;28;20471;-69
2022/12/15 13:36:36;;;;;;;32.08;23.65;;;;;;;3.33;59.58;100712.53;5324744;28;20462;-70
2022/12/15 13:39:11;;;;;;;31.33;23.88;;;;;;;3.06;60.26;100711.25;5325293;28;20478;-70
2022/12/15 13:42:03;;;;;;;32.38;24.27;;;;;;;3.29;60.40;100714.19;5325267;28;20038;-70
2022/12/15 13:44:39;;;;;;;32.38;24.17;;;;;;;3.63;59.72;100712.13;5310388;28;20046;-70
2022/12/15 13:47:26;;;;;;;30.77;23.52;;;;;;;3.88;59.26;100715.94;5325091;28;20102;-70
2022/12/15 13:50:01;;;;;;;29.58;22.70;;;;;;;3.93;58.64;100711.69;5325199;28;20057;-70
2022/12/15 13:52:40;;;;;;;36.90;24.00;;;;;;;4.18;58.34;100715.44;5325031;28;20108;-70
2022/12/15 13:55:24;;;;;;;33.25;23.35;;;;;;;5.42;56.17;100711.47;5324879;28;20028;-70
2022/12/15 13:58:01;;;;;;;29.25;21.75;;;;;;;6.98;51.46;100709.53;5306602;28;20044;-70
2022/12/15 14:00:32;;;;;;;30.63;21.08;;;;;;;8.08;48.21;100710.22;5326084;28;20038;-70
2022/12/15 14:03:06;;;;;;;28.17;21.63;;;;;;;9.11;45.50;100710.53;5328719;28;20027;-71
2022/12/15 14:05:40;;;;;;;28.20;21.48;;;;;;;9.52;43.28;100710.19;5310676;28;20027;-72
2022/12/15 14:08:15;;;;;;;29.75;20.67;;;;;;;9.78;42.40;100707.31;5329019;28;20031;-70
2022/12/15 14:10:51;;;;;;;31.00;20.70;;;;;;;9.98;41.69;100704.47;5328727;28;20024;-70
2022/12/15 14:13:24;;;;;;;26.85;20.35;;;;;;;9.45;41.81;100698.94;5328740;28;20027;-71
2022/12/15 14:16:01;;;;;;;29.23;21.08;;;;;;;10.60;41.11;100709.81;5328371;28;20024;-71